Bingham Farms, Michigan
Current Conditions -  °F | °C
As of 4:21 AM on Monday 24 Nov 2014 (Local Time) from KVLL Reporting Station
Light Rain Light Rain  
Wind Chill: 55°   Ceiling: 1000
Heat Index: 55°   Visibility: 7mi
Dew Point: 54°   Wind: 17mph
Humidity: 94%   Direction: 180°S
Pressure: 29.07"   Gusts: 25mph
Location:  42.5206°N, 83.2664°W
Report Text: KVLL 240921Z AUTO 18015G22KT 7SM -RA OVC010 13/12 A2907 RMK AO2
Loading
Personal Weather Stations






























Interactive Weather Map New forecast layout! Learn more

10-Day Weather Forecast

Advertisements
Track Severe Weather on mobile